createdAt,value
2024-01-17T00:04:19.655Z,96483.34
2024-01-17T00:09:20.861Z,96469.81
2024-01-17T00:14:22.145Z,96456.25
2024-01-17T00:19:23.387Z,96463.91
2024-01-17T00:24:24.609Z,96467.44
2024-01-17T00:29:25.863Z,96467.41
2024-01-17T00:34:27.270Z,96458.97
2024-01-17T00:39:28.537Z,96460.59
2024-01-17T00:44:30.526Z,96458.06
2024-01-17T00:49:31.839Z,96455.53
2024-01-17T00:54:33.206Z,96447.09
2024-01-17T00:59:34.529Z,96435.41
2024-01-17T01:04:35.812Z,96416.06
2024-01-17T01:09:37.311Z,96410.13
2024-01-17T01:14:38.827Z,96415.22
2024-01-17T01:19:40.216Z,96399.13
2024-01-17T01:24:41.539Z,96402.69
2024-01-17T01:29:42.854Z,96422.91
2024-01-17T01:34:44.468Z,96412.78
2024-01-17T01:39:45.847Z,96430.59
2024-01-17T01:44:47.176Z,96416.28
2024-01-17T01:49:49.380Z,96403.59
2024-01-17T01:54:50.606Z,96415.38
2024-01-17T01:59:51.870Z,96406.06
2024-01-17T02:04:53.174Z,96413.56
2024-01-17T02:09:54.488Z,96413.63
2024-01-17T02:14:55.793Z,96402.72
2024-01-17T02:19:57.005Z,96391.75
2024-01-17T02:24:58.236Z,96379.13
2024-01-17T02:29:59.482Z,96376.59
2024-01-17T02:35:00.788Z,96369.00
2024-01-17T02:40:02.062Z,96354.53
2024-01-17T02:45:03.364Z,96360.31
2024-01-17T02:50:05.041Z,96367.84
2024-01-17T02:55:06.285Z,96364.38
2024-01-17T03:00:09.463Z,96350.91
2024-01-17T03:05:10.854Z,96350.84
2024-01-17T03:10:13.496Z,96337.31
2024-01-17T03:15:14.893Z,96327.19
2024-01-17T03:20:16.158Z,96306.25
2024-01-17T03:25:17.359Z,96300.94
2024-01-17T03:30:18.757Z,96295.78
2024-01-17T03:35:20.054Z,96279.53
2024-01-17T03:40:21.256Z,96286.97
2024-01-17T03:45:22.497Z,96270.78
2024-01-17T03:50:25.332Z,96251.19
2024-01-17T03:55:26.565Z,96246.00
2024-01-17T04:00:27.762Z,96245.84
2024-01-17T04:05:29.086Z,96249.00
2024-01-17T04:10:30.317Z,96237.28
2024-01-17T04:15:31.671Z,96232.94
2024-01-17T04:20:33.551Z,96224.75
2024-01-17T04:25:34.913Z,96217.22
2024-01-17T04:30:36.228Z,96219.41
2024-01-17T04:35:37.979Z,96219.03
2024-01-17T04:40:39.184Z,96206.22
2024-01-17T04:45:40.374Z,96199.31
2024-01-17T04:50:41.678Z,96185.63
2024-01-17T04:55:43.008Z,96193.78
2024-01-17T05:00:44.280Z,96178.41
2024-01-17T05:05:45.727Z,96161.09
2024-01-17T05:10:47.019Z,96164.72
2024-01-17T05:15:48.300Z,96151.91
2024-01-17T05:20:49.607Z,96139.75
2024-01-17T05:25:50.867Z,96121.91
2024-01-17T05:30:52.181Z,96133.47
2024-01-17T05:35:53.634Z,96128.22
2024-01-17T05:40:54.857Z,96140.53
2024-01-17T05:45:58.934Z,96141.72
2024-01-17T05:51:00.312Z,96130.34
2024-01-17T05:56:03.715Z,96135.88
2024-01-17T06:01:05.916Z,96132.31
2024-01-17T06:06:07.445Z,96122.63
2024-01-17T06:11:08.773Z,96117.72
2024-01-17T06:16:10.046Z,96111.41
2024-01-17T06:21:11.366Z,96103.78
2024-01-17T06:26:12.641Z,96087.38
2024-01-17T06:31:13.984Z,96071.84
2024-01-17T06:36:15.227Z,96069.22
2024-01-17T06:41:16.508Z,96063.25
2024-01-17T06:46:17.803Z,96051.47
2024-01-17T06:51:19.117Z,96044.13
2024-01-17T06:56:20.347Z,96040.00
2024-01-17T07:01:21.882Z,96040.81
2024-01-17T07:06:23.476Z,96036.50
2024-01-17T07:11:24.988Z,96038.78
2024-01-17T07:16:26.463Z,96026.03
2024-01-17T07:21:27.930Z,96013.66
2024-01-17T07:26:29.473Z,96008.72
2024-01-17T07:31:30.845Z,95998.06
2024-01-17T07:36:32.289Z,95977.97
2024-01-17T07:41:33.740Z,95963.34
2024-01-17T07:46:35.036Z,95955.94
2024-01-17T07:51:36.249Z,95942.84
2024-01-17T07:56:37.457Z,95939.41
2024-01-17T08:01:38.896Z,95929.19
2024-01-17T08:06:40.782Z,95931.91
2024-01-17T08:11:42.184Z,95931.13
2024-01-17T08:16:43.484Z,95916.09
2024-01-17T08:21:44.799Z,95905.47
2024-01-17T08:26:46.104Z,95894.59
2024-01-17T08:31:47.434Z,95895.25
2024-01-17T08:36:48.749Z,95891.97
2024-01-17T08:41:50.057Z,95890.03
2024-01-17T08:46:52.308Z,95880.47
2024-01-17T08:51:53.530Z,95880.75
2024-01-17T08:56:54.800Z,95885.47
2024-01-17T09:01:57.799Z,95870.16
2024-01-17T09:06:59.262Z,95874.75
2024-01-17T09:12:00.814Z,95872.22
2024-01-17T09:17:04.365Z,95871.16
2024-01-17T09:22:05.688Z,95856.06
2024-01-17T09:27:07.065Z,95864.19
2024-01-17T09:32:08.440Z,95866.38
2024-01-17T09:37:11.029Z,95857.78
2024-01-17T09:42:12.328Z,95851.41
2024-01-17T09:47:13.766Z,95847.59
2024-01-17T09:52:18.817Z,95836.22
2024-01-17T09:57:20.665Z,95839.50
2024-01-17T10:02:22.220Z,95834.69
2024-01-17T10:07:23.486Z,95825.38
2024-01-17T10:12:24.860Z,95811.44
2024-01-17T10:17:26.121Z,95801.91
2024-01-17T10:22:27.405Z,95798.97
2024-01-17T10:27:28.694Z,95798.59
2024-01-17T10:32:31.877Z,95784.78
2024-01-17T10:37:36.226Z,95782.34
2024-01-17T10:42:37.533Z,95766.91
2024-01-17T10:47:39.741Z,95749.91
2024-01-17T10:52:42.172Z,95746.47
2024-01-17T10:57:43.535Z,95730.88
2024-01-17T11:02:45.500Z,95724.28
2024-01-17T11:07:46.912Z,95711.44
2024-01-17T11:12:48.301Z,95701.13
2024-01-17T11:17:50.469Z,95688.31
2024-01-17T11:22:52.032Z,95674.75
2024-01-17T11:27:53.470Z,95650.81
2024-01-17T11:32:57.196Z,95644.88
2024-01-17T11:37:59.781Z,95637.81
2024-01-17T11:43:01.130Z,95615.63
2024-01-17T11:48:02.417Z,95596.13
2024-01-17T11:53:03.679Z,95574.59
2024-01-17T11:58:04.970Z,95553.75
2024-01-17T12:03:06.952Z,95545.91
2024-01-17T12:08:08.363Z,95529.66
2024-01-17T12:13:09.793Z,95512.91
2024-01-17T12:18:11.155Z,95496.09
2024-01-17T12:23:12.580Z,95486.94
2024-01-17T12:28:13.840Z,95480.31
2024-01-17T12:33:15.205Z,95476.34
2024-01-17T12:38:16.642Z,95462.72
2024-01-17T12:43:18.004Z,95448.28
2024-01-17T12:48:19.590Z,95446.59
2024-01-17T12:53:21.518Z,95438.38
2024-01-17T12:58:23.360Z,95417.25
2024-01-17T13:03:28.716Z,95427.16
2024-01-17T13:08:30.024Z,95441.31
2024-01-17T13:13:31.291Z,95416.28
2024-01-17T13:18:32.632Z,95422.81
2024-01-17T13:23:33.999Z,95420.72
2024-01-17T13:28:35.295Z,95416.91
2024-01-17T13:33:36.698Z,95418.19
2024-01-17T13:38:38.288Z,95415.97
2024-01-17T13:43:39.667Z,95421.81
2024-01-17T13:49:11.167Z,95403.59
2024-01-17T13:54:16.887Z,95410.38
2024-01-17T13:59:18.548Z,95416.25
2024-01-17T14:04:20.048Z,95401.75
2024-01-17T14:09:25.262Z,95397.53
2024-01-17T14:14:27.819Z,95394.88
2024-01-17T14:19:29.257Z,95380.06
2024-01-17T14:24:30.841Z,95361.47
2024-01-17T14:29:32.242Z,95367.31
2024-01-17T14:34:33.685Z,95366.50
2024-01-17T14:39:35.039Z,95342.25
2024-01-17T14:44:36.405Z,95349.06
2024-01-17T14:49:37.858Z,95342.63
2024-01-17T14:54:39.143Z,95322.84
2024-01-17T14:59:40.747Z,95318.00
2024-01-17T15:04:42.095Z,95295.94
2024-01-17T15:09:49.122Z,95299.69
2024-01-17T15:14:51.244Z,95301.66
2024-01-17T15:19:52.670Z,95302.50
2024-01-17T15:24:54.023Z,95293.13
2024-01-17T15:29:58.469Z,95282.22
2024-01-17T15:35:00.715Z,95271.97
2024-01-17T15:40:02.446Z,95276.75
2024-01-17T15:45:03.805Z,95274.31
2024-01-17T15:50:05.226Z,95276.88
2024-01-17T15:55:06.580Z,95274.38
2024-01-17T16:00:10.548Z,95255.91
2024-01-17T16:05:12.431Z,95261.28
2024-01-17T16:10:13.772Z,95248.66
2024-01-17T16:15:15.192Z,95242.03
2024-01-17T16:20:21.495Z,95246.97
2024-01-17T16:25:24.378Z,95241.94
2024-01-17T16:30:28.181Z,95235.25
2024-01-17T16:35:31.812Z,95244.66
2024-01-17T16:40:40.621Z,95230.16
2024-01-17T16:45:41.902Z,95230.81
2024-01-17T16:50:45.426Z,95219.53
2024-01-17T16:55:46.870Z,95216.66
2024-01-17T17:00:48.150Z,95212.91
2024-01-17T17:05:49.541Z,95205.91
2024-01-17T17:10:50.890Z,95206.59
2024-01-17T17:15:52.299Z,95214.44
2024-01-17T17:20:53.721Z,95196.09
2024-01-17T17:25:56.461Z,95196.41
2024-01-17T17:30:57.753Z,95212.44
2024-01-17T17:35:59.088Z,95207.19
2024-01-17T17:41:00.380Z,95215.34
2024-01-17T17:46:02.409Z,95202.63
2024-01-17T17:51:09.459Z,95188.03
2024-01-17T17:56:10.698Z,95153.19
2024-01-17T18:01:12.196Z,95149.03
2024-01-17T18:06:13.505Z,95162.38
2024-01-17T18:11:16.548Z,95167.13
2024-01-17T18:16:24.470Z,95163.66
2024-01-17T18:21:25.891Z,95155.31
2024-01-17T18:26:27.123Z,95148.72
2024-01-17T18:31:28.478Z,95166.56
2024-01-17T18:36:30.168Z,95154.84
2024-01-17T18:41:31.728Z,95151.78
2024-01-17T18:46:33.066Z,95120.03
2024-01-17T18:51:34.347Z,95115.88
2024-01-17T18:56:35.856Z,95108.63
2024-01-17T19:01:38.322Z,95107.81
2024-01-17T19:06:44.535Z,95132.00
2024-01-17T19:11:46.437Z,95114.56
2024-01-17T19:16:48.681Z,95102.06
2024-01-17T19:21:49.904Z,95114.44
2024-01-17T19:26:51.419Z,95116.50
2024-01-17T19:31:54.522Z,95121.44
2024-01-17T19:36:55.989Z,95116.41
2024-01-17T19:41:57.227Z,95130.44
2024-01-17T19:46:58.628Z,95124.44
2024-01-17T19:52:00.006Z,95113.09
2024-01-17T19:57:01.412Z,95108.09
2024-01-17T20:02:02.926Z,95117.81
2024-01-17T20:07:04.653Z,95112.94
2024-01-17T20:12:06.035Z,95101.25
2024-01-17T20:17:07.317Z,95097.56
2024-01-17T20:22:08.632Z,95094.97
2024-01-17T20:27:09.960Z,95090.00
2024-01-17T20:32:11.242Z,95087.69
2024-01-17T20:37:14.265Z,95087.78
2024-01-17T20:42:17.381Z,95081.97
2024-01-17T20:47:18.831Z,95065.63
2024-01-17T20:52:20.151Z,95067.59
2024-01-17T20:57:21.520Z,95065.53
2024-01-17T21:02:22.840Z,95065.69
2024-01-17T21:07:26.536Z,95070.25
2024-01-17T21:12:29.235Z,95067.56
2024-01-17T21:17:31.353Z,95065.97
2024-01-17T21:22:32.634Z,95051.75
2024-01-17T21:27:33.914Z,95054.03
2024-01-17T21:32:35.310Z,95062.53
2024-01-17T21:37:36.607Z,95054.31
2024-01-17T21:42:37.931Z,95058.28
2024-01-17T21:47:39.368Z,95062.19
2024-01-17T21:52:40.671Z,95051.81
2024-01-17T21:57:41.965Z,95055.13
2024-01-17T22:02:43.264Z,95047.94
2024-01-17T22:07:46.315Z,95057.97
2024-01-17T22:12:47.614Z,95053.81
2024-01-17T22:17:52.506Z,95042.91
2024-01-17T22:22:53.858Z,95036.44
2024-01-17T22:27:57.025Z,95035.06
2024-01-17T22:32:58.470Z,95039.75
2024-01-17T22:38:00.781Z,95049.00
2024-01-17T22:43:04.716Z,95048.03
2024-01-17T22:48:08.790Z,95063.06
2024-01-17T22:53:14.101Z,95068.25
2024-01-17T22:58:15.367Z,95068.97
2024-01-17T23:03:16.918Z,95057.97
2024-01-17T23:08:18.284Z,95059.63
2024-01-17T23:13:24.509Z,95057.75
2024-01-17T23:18:27.338Z,95054.16
2024-01-17T23:23:28.646Z,95049.59
2024-01-17T23:28:29.926Z,95024.25
2024-01-17T23:33:31.689Z,95043.28
2024-01-17T23:38:33.145Z,95037.59
2024-01-17T23:43:34.492Z,95038.84
2024-01-17T23:48:36.091Z,95053.03
2024-01-17T23:53:37.397Z,95059.72
2024-01-17T23:58:38.697Z,95054.19
